createdAt,value
2024-05-09T00:03:49.759Z,90.06
2024-05-09T00:32:26.049Z,92.33
2024-05-09T01:00:51.189Z,95.9
2024-05-09T04:45:49.737Z,100.12
2024-05-09T05:14:41.842Z,99.36
2024-05-09T05:43:16.403Z,99.83
2024-05-09T06:11:58.177Z,93.77
2024-05-09T06:40:45.226Z,67.2
2024-05-09T07:09:39.410Z,50.15
2024-05-09T07:38:27.357Z,63.03
2024-05-09T08:06:53.825Z,64.66
2024-05-09T08:35:32.981Z,59.09
2024-05-09T09:04:13.719Z,55.55
2024-05-09T09:32:51.863Z,54.99
2024-05-09T10:01:36.593Z,56.21
2024-05-09T10:30:29.310Z,55.8
2024-05-09T10:58:31.991Z,55.6
2024-05-09T11:27:06.780Z,52.59
2024-05-09T11:55:42.538Z,49.7
2024-05-09T12:24:20.118Z,50.14
2024-05-09T12:53:06.234Z,48.16
2024-05-09T13:21:40.286Z,46.67
2024-05-09T13:50:30.769Z,45.65
2024-05-09T14:18:40.683Z,44.67
2024-05-09T14:47:18.032Z,44.68
2024-05-09T15:15:57.053Z,45.49
2024-05-09T15:44:31.336Z,44.3
2024-05-09T16:12:57.945Z,45.15
2024-05-09T16:41:31.661Z,46.1
2024-05-09T17:10:26.965Z,47.55
2024-05-09T17:38:38.664Z,48.91
2024-05-09T18:07:05.783Z,49.41
2024-05-09T18:35:32.210Z,53.86
2024-05-09T19:04:11.406Z,56.48
2024-05-09T19:32:33.829Z,63
2024-05-09T20:01:05.022Z,66.29
2024-05-09T20:29:26.034Z,68.13
2024-05-09T20:57:58.236Z,70.61
2024-05-09T21:26:26.426Z,72.37
2024-05-09T21:55:05.310Z,73.92
2024-05-09T22:23:44.153Z,75.47
2024-05-09T22:52:19.592Z,76.57
2024-05-09T23:20:43.622Z,77.21
2024-05-09T23:49:22.819Z,79.47
